UAL2327 KDEN-KOMA
Flight info
| Callsign | UAL2327 |
|---|---|
| Flight time | 1h 3m |
| Altitude | 39000 |
| Route | EEONS8 WYNDM HCT GRI HOWRY3 |
| Aircraft | A319/M-SDE3FGHIRWY/LB1 |
Departure
| Time | 2026-05-06 21:16 |
|---|---|
| Airport | Denver International Airport (KDEN) |
Arrival
| Time | 2026-05-06 22:19 |
|---|---|
| Airport | Eppley Airfield (KOMA) |
| Time | Latitude | Longitude | Altitude | Speed | Heading |
|---|---|---|---|---|---|
| 2026-05-06 20:50 | 39.85935 | -104.67846 | 5363 ft | 0 kts | 180° |
| 2026-05-06 21:07 | 39.85958 | -104.67847 | 5365 ft | 4 kts | 180° |
| 2026-05-06 21:07 | 39.85980 | -104.67847 | 5365 ft | 4 kts | 180° |
| 2026-05-06 21:07 | 39.86007 | -104.67847 | 5364 ft | 4 kts | 180° |
| 2026-05-06 21:07 | 39.86012 | -104.67847 | 5364 ft | 0 kts | 180° |
| 2026-05-06 21:10 | 39.86009 | -104.67841 | 5363 ft | 1 kts | 132° |
| 2026-05-06 21:11 | 39.86011 | -104.67836 | 5363 ft | 1 kts | 86° |
| 2026-05-06 21:11 | 39.86017 | -104.67794 | 5366 ft | 9 kts | 81° |
| 2026-05-06 21:11 | 39.86031 | -104.67676 | 5366 ft | 18 kts | 81° |
| 2026-05-06 21:11 | 39.86057 | -104.67492 | 5366 ft | 23 kts | 79° |
| 2026-05-06 21:12 | 39.86065 | -104.67271 | 5366 ft | 26 kts | 90° |
| 2026-05-06 21:12 | 39.86063 | -104.67018 | 5366 ft | 30 kts | 90° |
| 2026-05-06 21:12 | 39.86061 | -104.66738 | 5366 ft | 31 kts | 90° |
| 2026-05-06 21:12 | 39.86023 | -104.66486 | 5366 ft | 28 kts | 104° |
| 2026-05-06 21:13 | 39.86022 | -104.66263 | 5363 ft | 17 kts | 68° |
| 2026-05-06 21:13 | 39.86136 | -104.66228 | 5362 ft | 19 kts | 0° |
| 2026-05-06 21:13 | 39.86277 | -104.66226 | 5364 ft | 22 kts | 1° |
| 2026-05-06 21:13 | 39.86436 | -104.66224 | 5365 ft | 25 kts | 0° |
| 2026-05-06 21:14 | 39.86617 | -104.66222 | 5365 ft | 28 kts | 0° |
| 2026-05-06 21:14 | 39.86820 | -104.66219 | 5365 ft | 31 kts | 0° |
| 2026-05-06 21:14 | 39.87044 | -104.66216 | 5365 ft | 34 kts | 0° |
| 2026-05-06 21:14 | 39.87274 | -104.66214 | 5366 ft | 31 kts | 0° |
| 2026-05-06 21:15 | 39.87483 | -104.66210 | 5365 ft | 31 kts | 0° |
| 2026-05-06 21:15 | 39.87693 | -104.66207 | 5365 ft | 26 kts | 0° |
| 2026-05-06 21:15 | 39.87760 | -104.66014 | 5365 ft | 32 kts | 90° |
| 2026-05-06 21:15 | 39.87757 | -104.65526 | 5365 ft | 83 kts | 90° |
| 2026-05-06 21:16 | 39.87748 | -104.64504 | 5361 ft | 143 kts | 90° |
| 2026-05-06 21:16 | 39.87736 | -104.63054 | 5734 ft | 163 kts | 90° |
| 2026-05-06 21:16 | 39.87723 | -104.61579 | 6612 ft | 163 kts | 91° |
| 2026-05-06 21:16 | 39.87714 | -104.60079 | 7192 ft | 171 kts | 91° |
| 2026-05-06 21:17 | 39.87704 | -104.58440 | 7486 ft | 192 kts | 90° |
| 2026-05-06 21:17 | 39.87942 | -104.56633 | 7765 ft | 217 kts | 73° |
| 2026-05-06 21:17 | 39.88411 | -104.54635 | 8138 ft | 243 kts | 72° |
| 2026-05-06 21:17 | 39.88933 | -104.52427 | 8657 ft | 268 kts | 72° |
| 2026-05-06 21:18 | 39.89504 | -104.50025 | 9325 ft | 284 kts | 72° |
| 2026-05-06 21:18 | 39.90090 | -104.47539 | 10183 ft | 292 kts | 72° |
| 2026-05-06 21:18 | 39.90705 | -104.44896 | 10524 ft | 317 kts | 72° |
| 2026-05-06 21:18 | 39.91356 | -104.42092 | 10903 ft | 335 kts | 72° |
| 2026-05-06 21:19 | 39.92035 | -104.39146 | 11580 ft | 343 kts | 72° |
| 2026-05-06 21:19 | 39.92709 | -104.36139 | 12310 ft | 349 kts | 72° |
| 2026-05-06 21:19 | 39.93382 | -104.33073 | 13038 ft | 355 kts | 72° |
| 2026-05-06 21:19 | 39.94056 | -104.29952 | 13762 ft | 360 kts | 72° |
| 2026-05-06 21:20 | 39.94738 | -104.26786 | 14420 ft | 365 kts | 72° |
| 2026-05-06 21:20 | 39.95432 | -104.23565 | 15076 ft | 370 kts | 72° |
| 2026-05-06 21:20 | 39.96128 | -104.20353 | 15731 ft | 373 kts | 72° |
| 2026-05-06 21:20 | 39.96839 | -104.17073 | 16405 ft | 378 kts | 72° |
| 2026-05-06 21:21 | 39.97405 | -104.13709 | 17072 ft | 384 kts | 79° |
| 2026-05-06 21:21 | 39.97777 | -104.10238 | 17759 ft | 388 kts | 79° |
| 2026-05-06 21:21 | 39.98157 | -104.06740 | 18438 ft | 393 kts | 79° |
| 2026-05-06 21:21 | 39.98543 | -104.03195 | 19042 ft | 397 kts | 79° |
| 2026-05-06 21:22 | 39.98936 | -103.99607 | 19649 ft | 401 kts | 79° |
| 2026-05-06 21:22 | 39.99332 | -103.95998 | 20265 ft | 405 kts | 79° |
| 2026-05-06 21:22 | 39.99731 | -103.92342 | 20876 ft | 408 kts | 79° |
| 2026-05-06 21:22 | 40.00199 | -103.88680 | 21473 ft | 412 kts | 77° |
| 2026-05-06 21:23 | 40.00759 | -103.85004 | 22066 ft | 415 kts | 76° |
| 2026-05-06 21:23 | 40.01372 | -103.81309 | 22631 ft | 419 kts | 75° |
| 2026-05-06 21:23 | 40.02008 | -103.77577 | 23184 ft | 423 kts | 75° |
| 2026-05-06 21:23 | 40.02649 | -103.73820 | 23722 ft | 426 kts | 75° |
| 2026-05-06 21:24 | 40.03293 | -103.70035 | 24184 ft | 430 kts | 75° |
| 2026-05-06 21:24 | 40.03935 | -103.66212 | 24675 ft | 432 kts | 75° |
| 2026-05-06 21:24 | 40.04564 | -103.62417 | 25159 ft | 433 kts | 75° |
| 2026-05-06 21:24 | 40.05198 | -103.58562 | 25647 ft | 435 kts | 75° |
| 2026-05-06 21:25 | 40.05828 | -103.54698 | 26130 ft | 437 kts | 75° |
| 2026-05-06 21:25 | 40.06460 | -103.50803 | 26610 ft | 439 kts | 75° |
| 2026-05-06 21:25 | 40.07094 | -103.46895 | 27082 ft | 441 kts | 75° |
| 2026-05-06 21:25 | 40.07729 | -103.42974 | 27542 ft | 443 kts | 75° |
| 2026-05-06 21:26 | 40.08364 | -103.39025 | 28002 ft | 445 kts | 75° |
| 2026-05-06 21:26 | 40.09000 | -103.35061 | 28443 ft | 447 kts | 75° |
| 2026-05-06 21:26 | 40.09641 | -103.31083 | 28891 ft | 449 kts | 75° |
| 2026-05-06 21:26 | 40.10286 | -103.27077 | 29318 ft | 451 kts | 75° |
| 2026-05-06 21:27 | 40.10932 | -103.23050 | 29726 ft | 454 kts | 75° |
| 2026-05-06 21:27 | 40.11580 | -103.19005 | 30116 ft | 456 kts | 75° |
| 2026-05-06 21:27 | 40.12228 | -103.14939 | 30448 ft | 459 kts | 75° |
| 2026-05-06 21:27 | 40.12880 | -103.10841 | 30726 ft | 462 kts | 75° |
| 2026-05-06 21:28 | 40.13532 | -103.06732 | 30992 ft | 466 kts | 75° |
| 2026-05-06 21:28 | 40.14191 | -103.02573 | 31257 ft | 469 kts | 75° |
| 2026-05-06 21:28 | 40.14849 | -102.98403 | 31634 ft | 469 kts | 75° |
| 2026-05-06 21:28 | 40.15505 | -102.94220 | 31989 ft | 470 kts | 75° |
| 2026-05-06 21:29 | 40.16162 | -102.90039 | 32350 ft | 471 kts | 75° |
| 2026-05-06 21:29 | 40.16821 | -102.85833 | 32720 ft | 472 kts | 76° |
| 2026-05-06 21:29 | 40.17478 | -102.81626 | 33086 ft | 473 kts | 76° |
| 2026-05-06 21:29 | 40.18137 | -102.77407 | 33457 ft | 474 kts | 76° |
| 2026-05-06 21:30 | 40.18798 | -102.73189 | 33825 ft | 475 kts | 76° |
| 2026-05-06 21:30 | 40.19462 | -102.68938 | 34190 ft | 476 kts | 76° |
| 2026-05-06 21:30 | 40.20119 | -102.64697 | 34505 ft | 477 kts | 76° |
| 2026-05-06 21:30 | 40.20774 | -102.60431 | 34800 ft | 479 kts | 76° |
| 2026-05-06 21:31 | 40.21431 | -102.56146 | 35090 ft | 480 kts | 76° |
| 2026-05-06 21:31 | 40.22091 | -102.51848 | 35373 ft | 482 kts | 76° |
| 2026-05-06 21:31 | 40.22752 | -102.47545 | 35633 ft | 484 kts | 76° |
| 2026-05-06 21:31 | 40.23416 | -102.43224 | 35918 ft | 485 kts | 76° |
| 2026-05-06 21:32 | 40.24069 | -102.38941 | 36194 ft | 486 kts | 77° |
| 2026-05-06 21:32 | 40.25389 | -102.30212 | 36738 ft | 489 kts | 77° |
| 2026-05-06 21:32 | 40.26052 | -102.25830 | 36996 ft | 490 kts | 77° |
| 2026-05-06 21:33 | 40.26715 | -102.21437 | 37241 ft | 491 kts | 77° |
| 2026-05-06 21:33 | 40.27368 | -102.17101 | 37492 ft | 493 kts | 77° |
| 2026-05-06 21:33 | 40.28032 | -102.12670 | 37748 ft | 493 kts | 77° |
| 2026-05-06 21:33 | 40.28691 | -102.08258 | 37997 ft | 494 kts | 77° |
| 2026-05-06 21:34 | 40.29351 | -102.03832 | 38242 ft | 495 kts | 77° |
| 2026-05-06 21:34 | 40.30009 | -101.99404 | 38478 ft | 496 kts | 78° |
| 2026-05-06 21:34 | 40.30665 | -101.94968 | 38707 ft | 497 kts | 78° |
| 2026-05-06 21:34 | 40.31322 | -101.90519 | 38904 ft | 497 kts | 78° |
| 2026-05-06 21:35 | 40.31979 | -101.86078 | 39075 ft | 498 kts | 78° |
| 2026-05-06 21:35 | 40.32635 | -101.81615 | 39147 ft | 499 kts | 78° |
| 2026-05-06 21:35 | 40.33946 | -101.72680 | 39164 ft | 499 kts | 78° |
| 2026-05-06 21:36 | 40.35250 | -101.63773 | 39164 ft | 499 kts | 78° |
| 2026-05-06 21:36 | 40.36547 | -101.54808 | 39164 ft | 500 kts | 78° |
| 2026-05-06 21:37 | 40.37831 | -101.45844 | 39166 ft | 500 kts | 78° |
| 2026-05-06 21:37 | 40.39101 | -101.36928 | 39170 ft | 500 kts | 78° |
| 2026-05-06 21:38 | 40.40388 | -101.27946 | 39171 ft | 501 kts | 78° |
| 2026-05-06 21:38 | 40.41677 | -101.18947 | 39175 ft | 501 kts | 78° |
| 2026-05-06 21:39 | 40.42948 | -101.09942 | 39176 ft | 502 kts | 78° |
| 2026-05-06 21:39 | 40.44213 | -101.00930 | 39176 ft | 502 kts | 79° |
| 2026-05-06 21:40 | 40.45514 | -100.91915 | 39173 ft | 502 kts | 75° |
| 2026-05-06 21:40 | 40.47394 | -100.83147 | 39173 ft | 502 kts | 73° |
| 2026-05-06 21:41 | 40.49303 | -100.74302 | 39167 ft | 503 kts | 73° |
| 2026-05-06 21:41 | 40.51191 | -100.65453 | 39170 ft | 503 kts | 73° |
| 2026-05-06 21:42 | 40.53084 | -100.56576 | 39170 ft | 504 kts | 73° |
| 2026-05-06 21:42 | 40.54964 | -100.47711 | 39161 ft | 504 kts | 73° |
| 2026-05-06 21:43 | 40.56836 | -100.38815 | 39162 ft | 504 kts | 73° |
| 2026-05-06 21:43 | 40.58709 | -100.29904 | 39155 ft | 505 kts | 73° |
| 2026-05-06 21:44 | 40.60565 | -100.21044 | 39154 ft | 505 kts | 73° |
| 2026-05-06 21:44 | 40.62435 | -100.12117 | 39148 ft | 506 kts | 73° |
| 2026-05-06 21:45 | 40.64291 | -100.03171 | 39144 ft | 506 kts | 73° |
| 2026-05-06 21:45 | 40.66141 | -99.94220 | 39145 ft | 507 kts | 73° |
| 2026-05-06 21:46 | 40.67991 | -99.85238 | 39150 ft | 507 kts | 73° |
| 2026-05-06 21:46 | 40.69817 | -99.76329 | 39141 ft | 507 kts | 74° |
| 2026-05-06 21:47 | 40.71644 | -99.67355 | 38683 ft | 507 kts | 74° |
| 2026-05-06 21:47 | 40.72555 | -99.62860 | 38106 ft | 507 kts | 74° |
| 2026-05-06 21:47 | 40.73467 | -99.58364 | 37523 ft | 507 kts | 74° |
| 2026-05-06 21:48 | 40.74377 | -99.53871 | 36935 ft | 507 kts | 74° |
| 2026-05-06 21:48 | 40.75287 | -99.49379 | 36337 ft | 507 kts | 74° |
| 2026-05-06 21:48 | 40.76199 | -99.44877 | 35734 ft | 507 kts | 74° |
| 2026-05-06 21:48 | 40.77106 | -99.40381 | 35292 ft | 506 kts | 74° |
| 2026-05-06 21:49 | 40.78011 | -99.35886 | 35096 ft | 507 kts | 74° |
| 2026-05-06 21:49 | 40.78914 | -99.31378 | 35144 ft | 508 kts | 74° |
| 2026-05-06 21:49 | 40.80704 | -99.22406 | 35143 ft | 509 kts | 74° |
| 2026-05-06 21:50 | 40.82500 | -99.13360 | 35144 ft | 509 kts | 74° |
| 2026-05-06 21:50 | 40.84294 | -99.04279 | 35145 ft | 509 kts | 74° |
| 2026-05-06 21:51 | 40.86079 | -98.95224 | 35145 ft | 510 kts | 74° |
| 2026-05-06 21:51 | 40.87859 | -98.86143 | 35141 ft | 510 kts | 75° |
| 2026-05-06 21:52 | 40.89328 | -98.78591 | 35142 ft | 511 kts | 75° |
| 2026-05-06 21:52 | 40.91095 | -98.69494 | 35134 ft | 511 kts | 75° |
| 2026-05-06 21:53 | 40.93152 | -98.58901 | 35129 ft | 512 kts | 75° |
| 2026-05-06 21:53 | 40.94630 | -98.51260 | 35132 ft | 512 kts | 75° |
| 2026-05-06 21:54 | 40.96381 | -98.42132 | 35127 ft | 513 kts | 75° |
| 2026-05-06 21:54 | 40.98127 | -98.32963 | 35127 ft | 513 kts | 75° |
| 2026-05-06 21:55 | 41.00413 | -98.24029 | 35129 ft | 513 kts | 69° |
| 2026-05-06 21:55 | 41.02806 | -98.15125 | 34819 ft | 513 kts | 69° |
| 2026-05-06 21:56 | 41.03987 | -98.10728 | 34596 ft | 513 kts | 69° |
| 2026-05-06 21:56 | 41.05196 | -98.06212 | 34347 ft | 513 kts | 69° |
| 2026-05-06 21:56 | 41.06372 | -98.01807 | 33522 ft | 516 kts | 69° |
| 2026-05-06 21:56 | 41.07568 | -97.97305 | 32549 ft | 521 kts | 69° |
| 2026-05-06 21:57 | 41.08778 | -97.92751 | 31522 ft | 526 kts | 69° |
| 2026-05-06 21:57 | 41.09999 | -97.88151 | 30550 ft | 530 kts | 69° |
| 2026-05-06 21:57 | 41.11222 | -97.83533 | 29968 ft | 523 kts | 69° |
| 2026-05-06 21:57 | 41.12417 | -97.79005 | 29307 ft | 517 kts | 69° |
| 2026-05-06 21:58 | 41.13596 | -97.74531 | 28687 ft | 510 kts | 69° |
| 2026-05-06 21:58 | 41.14760 | -97.70116 | 28055 ft | 504 kts | 69° |
| 2026-05-06 21:58 | 41.15895 | -97.65805 | 27439 ft | 498 kts | 69° |
| 2026-05-06 21:58 | 41.17029 | -97.61494 | 26825 ft | 492 kts | 69° |
| 2026-05-06 21:59 | 41.18149 | -97.57220 | 26224 ft | 487 kts | 69° |
| 2026-05-06 21:59 | 41.19251 | -97.53005 | 25620 ft | 482 kts | 69° |
| 2026-05-06 21:59 | 41.20346 | -97.48818 | 25017 ft | 477 kts | 69° |
| 2026-05-06 21:59 | 41.21427 | -97.44677 | 24431 ft | 472 kts | 69° |
| 2026-05-06 22:00 | 41.22493 | -97.40580 | 23860 ft | 467 kts | 69° |
| 2026-05-06 22:00 | 41.23544 | -97.36525 | 23249 ft | 461 kts | 69° |
| 2026-05-06 22:00 | 41.24577 | -97.32539 | 22721 ft | 453 kts | 69° |
| 2026-05-06 22:00 | 41.25595 | -97.28617 | 22222 ft | 445 kts | 69° |
| 2026-05-06 22:01 | 41.26594 | -97.24751 | 21716 ft | 439 kts | 69° |
| 2026-05-06 22:01 | 41.27576 | -97.20938 | 21226 ft | 433 kts | 69° |
| 2026-05-06 22:01 | 41.28542 | -97.17171 | 20728 ft | 427 kts | 69° |
| 2026-05-06 22:01 | 41.29495 | -97.13459 | 20225 ft | 423 kts | 69° |
| 2026-05-06 22:02 | 41.30439 | -97.09783 | 19730 ft | 418 kts | 69° |
| 2026-05-06 22:02 | 41.31379 | -97.06132 | 19215 ft | 413 kts | 68° |
| 2026-05-06 22:02 | 41.32292 | -97.02584 | 18716 ft | 408 kts | 68° |
| 2026-05-06 22:02 | 41.33215 | -96.98983 | 18140 ft | 404 kts | 69° |
| 2026-05-06 22:03 | 41.34099 | -96.95508 | 17610 ft | 398 kts | 69° |
| 2026-05-06 22:03 | 41.34980 | -96.92030 | 16933 ft | 396 kts | 69° |
| 2026-05-06 22:03 | 41.35768 | -96.88554 | 16437 ft | 390 kts | 75° |
| 2026-05-06 22:03 | 41.36099 | -96.84985 | 15901 ft | 387 kts | 87° |
| 2026-05-06 22:04 | 41.35941 | -96.81434 | 15362 ft | 383 kts | 98° |
| 2026-05-06 22:04 | 41.35389 | -96.77978 | 14823 ft | 380 kts | 103° |
| 2026-05-06 22:04 | 41.34795 | -96.74576 | 14290 ft | 376 kts | 103° |
| 2026-05-06 22:04 | 41.34206 | -96.71202 | 13729 ft | 373 kts | 103° |
| 2026-05-06 22:05 | 41.33621 | -96.67864 | 13165 ft | 368 kts | 103° |
| 2026-05-06 22:05 | 41.33042 | -96.64564 | 12654 ft | 363 kts | 103° |
| 2026-05-06 22:05 | 41.32471 | -96.61314 | 12131 ft | 359 kts | 103° |
| 2026-05-06 22:05 | 41.31906 | -96.58092 | 11614 ft | 355 kts | 103° |
| 2026-05-06 22:06 | 41.31346 | -96.54909 | 11097 ft | 351 kts | 103° |
| 2026-05-06 22:06 | 41.30791 | -96.51760 | 10592 ft | 348 kts | 103° |
| 2026-05-06 22:06 | 41.30250 | -96.48693 | 10431 ft | 334 kts | 103° |
| 2026-05-06 22:06 | 41.29727 | -96.45745 | 10307 ft | 321 kts | 103° |
| 2026-05-06 22:07 | 41.29223 | -96.42904 | 10155 ft | 310 kts | 103° |
| 2026-05-06 22:07 | 41.28735 | -96.40156 | 9931 ft | 303 kts | 103° |
| 2026-05-06 22:07 | 41.28250 | -96.37422 | 9786 ft | 304 kts | 103° |
| 2026-05-06 22:07 | 41.27765 | -96.34692 | 9433 ft | 303 kts | 102° |
| 2026-05-06 22:08 | 41.27284 | -96.31976 | 9043 ft | 302 kts | 102° |
| 2026-05-06 22:08 | 41.26807 | -96.29290 | 8655 ft | 301 kts | 102° |
| 2026-05-06 22:08 | 41.26322 | -96.26575 | 8313 ft | 301 kts | 102° |
| 2026-05-06 22:08 | 41.25838 | -96.23868 | 7946 ft | 300 kts | 102° |
| 2026-05-06 22:09 | 41.25357 | -96.21187 | 7626 ft | 298 kts | 102° |
| 2026-05-06 22:09 | 41.24877 | -96.18516 | 7287 ft | 294 kts | 102° |
| 2026-05-06 22:09 | 41.24402 | -96.15872 | 6728 ft | 292 kts | 102° |
| 2026-05-06 22:09 | 41.23932 | -96.13271 | 6312 ft | 284 kts | 103° |
| 2026-05-06 22:10 | 41.23480 | -96.10776 | 5935 ft | 277 kts | 102° |
| 2026-05-06 22:10 | 41.23035 | -96.08313 | 5574 ft | 271 kts | 102° |
| 2026-05-06 22:10 | 41.22601 | -96.05914 | 5231 ft | 263 kts | 102° |
| 2026-05-06 22:10 | 41.22181 | -96.03593 | 5029 ft | 251 kts | 102° |
| 2026-05-06 22:11 | 41.21782 | -96.01389 | 4758 ft | 242 kts | 102° |
| 2026-05-06 22:11 | 41.21380 | -95.99236 | 4373 ft | 240 kts | 106° |
| 2026-05-06 22:11 | 41.20708 | -95.97221 | 3973 ft | 238 kts | 121° |
| 2026-05-06 22:11 | 41.19713 | -95.95474 | 3587 ft | 238 kts | 134° |
| 2026-05-06 22:12 | 41.18597 | -95.93852 | 3371 ft | 237 kts | 133° |
| 2026-05-06 22:12 | 41.17491 | -95.92223 | 3178 ft | 238 kts | 133° |
| 2026-05-06 22:12 | 41.16395 | -95.90595 | 2948 ft | 235 kts | 133° |
| 2026-05-06 22:12 | 41.15325 | -95.89002 | 2821 ft | 227 kts | 133° |
| 2026-05-06 22:13 | 41.14333 | -95.87431 | 2782 ft | 215 kts | 121° |
| 2026-05-06 22:13 | 41.13947 | -95.85582 | 2797 ft | 206 kts | 91° |
| 2026-05-06 22:13 | 41.13907 | -95.83708 | 2789 ft | 203 kts | 87° |
| 2026-05-06 22:13 | 41.13912 | -95.81850 | 2808 ft | 204 kts | 85° |
| 2026-05-06 22:14 | 41.14115 | -95.80010 | 2809 ft | 201 kts | 74° |
| 2026-05-06 22:14 | 41.14443 | -95.78216 | 2806 ft | 201 kts | 72° |
| 2026-05-06 22:14 | 41.14870 | -95.76476 | 2796 ft | 195 kts | 52° |
| 2026-05-06 22:14 | 41.15909 | -95.75527 | 2815 ft | 180 kts | 3° |
| 2026-05-06 22:15 | 41.17038 | -95.76000 | 2802 ft | 174 kts | 312° |
| 2026-05-06 22:15 | 41.17632 | -95.77366 | 2801 ft | 171 kts | 298° |
| 2026-05-06 22:15 | 41.18481 | -95.78427 | 2804 ft | 172 kts | 332° |
| 2026-05-06 22:15 | 41.19513 | -95.79224 | 2803 ft | 172 kts | 318° |
| 2026-05-06 22:16 | 41.20453 | -95.80211 | 2811 ft | 171 kts | 321° |
| 2026-05-06 22:16 | 41.21341 | -95.81072 | 2809 ft | 146 kts | 322° |
| 2026-05-06 22:16 | 41.22112 | -95.81808 | 2737 ft | 131 kts | 322° |
| 2026-05-06 22:16 | 41.22832 | -95.82492 | 2602 ft | 124 kts | 322° |
| 2026-05-06 22:17 | 41.23520 | -95.83146 | 2454 ft | 122 kts | 322° |
| 2026-05-06 22:17 | 41.24212 | -95.83803 | 2300 ft | 123 kts | 322° |
| 2026-05-06 22:17 | 41.24905 | -95.84458 | 2134 ft | 122 kts | 323° |
| 2026-05-06 22:17 | 41.25602 | -95.85116 | 1966 ft | 123 kts | 323° |
| 2026-05-06 22:18 | 41.26302 | -95.85779 | 1725 ft | 124 kts | 323° |
| 2026-05-06 22:18 | 41.26999 | -95.86437 | 1518 ft | 123 kts | 320° |
| 2026-05-06 22:18 | 41.27689 | -95.87090 | 1364 ft | 124 kts | 322° |
| 2026-05-06 22:18 | 41.28388 | -95.87753 | 1175 ft | 122 kts | 322° |
| 2026-05-06 22:19 | 41.29074 | -95.88407 | 1041 ft | 121 kts | 322° |
| 2026-05-06 22:19 | 41.29720 | -95.89028 | 988 ft | 100 kts | 324° |
| 2026-05-06 22:19 | 41.30182 | -95.89467 | 990 ft | 65 kts | 324° |
| 2026-05-06 22:19 | 41.30481 | -95.89752 | 989 ft | 40 kts | 324° |
| 2026-05-06 22:20 | 41.30526 | -95.89925 | 990 ft | 6 kts | 234° |
| 2026-05-06 22:20 | 41.30495 | -95.89982 | 987 ft | 9 kts | 234° |
| 2026-05-06 22:20 | 41.30444 | -95.90011 | 990 ft | 10 kts | 143° |
| 2026-05-06 22:20 | 41.30382 | -95.89951 | 991 ft | 12 kts | 144° |
| 2026-05-06 22:21 | 41.30307 | -95.89880 | 991 ft | 13 kts | 150° |
| 2026-05-06 22:21 | 41.30259 | -95.89928 | 985 ft | 8 kts | 229° |
| 2026-05-06 22:21 | 41.30203 | -95.89916 | 987 ft | 9 kts | 162° |
| 2026-05-06 22:21 | 41.30177 | -95.89905 | 986 ft | 1 kts | 162° |
| 2026-05-06 22:22 | 41.30176 | -95.89905 | 986 ft | 0 kts | 162° |